METAR AND TAF INFORMATION
METAR FOR KTUS
ADDS - METARS form results

(0628 UTC 20 April 2018)
Data provider http://aviationweather.gov/adds/metars/
 
METAR text: KTUS 200553Z 26003KT 10SM CLR 17/M09 A2992 RMK AO2 SLP092 T01671089 10294 20167 51016
Conditions at: KTUS (TUCSON , AZ, US) observed 0553 UTC 20 April 2018
Temperature: 16.7°C (62°F)
Dewpoint: -8.9°C (16°F) [RH = 16%]
Pressure (altimeter): 29.92 inches Hg (1013.3 mb)
[Sea-level pressure: 1009.2 mb]
Winds: from the W (260 degrees) at 3 MPH (3 knots; 1.6 m/s)
Visibility: 10 or more miles (16+ km)
Ceiling: at least 12,000 feet AGL
Clouds: sky clear below 12,000 feet AGL
Weather: no significant weather observed at this time

Forecast for: KTUS (TUCSON , AZ, US)
Text: KTUS 200520Z 2006/2106 27010KT P6SM SCT220
Forecast period: 0600 to 0800 UTC 20 April 2018
Forecast type: FROM: standard forecast or significant change
Winds: from the W (270 degrees) at 12 MPH (10 knots; 5.2 m/s)
Visibility: 6 or more miles (10+ km)
Clouds: scattered clouds at 22000 feet AGL
Weather: no significant weather forecast for this period
Forecast for: KTUS (TUCSON , AZ, US)
Text: KTUS 200520Z 2006/2106 27010KT P6SM SCT220
Forecast period: 0600 to 0800 UTC 20 April 2018
Forecast type: FROM: standard forecast or significant change
Winds: from the W (270 degrees) at 12 MPH (10 knots; 5.2 m/s)
Visibility: 6 or more miles (10+ km)
Clouds: scattered clouds at 22000 feet AGL
Weather: no significant weather forecast for this period
Forecast for: KTUS (TUCSON , AZ, US)
Text: KTUS 200520Z 2006/2106 27010KT P6SM SCT220
Forecast period: 0800 to 1700 UTC 20 April 2018
Forecast type: FROM: standard forecast or significant change
Winds: from the WSW (240 degrees) at 6 MPH (5 knots; 2.6 m/s)
Visibility: 6 or more miles (10+ km)
Clouds: few clouds at 25000 feet AGL
Weather: no significant weather forecast for this period
Forecast for: KTUS (TUCSON , AZ, US)
Text: KTUS 200520Z 2006/2106 27010KT P6SM SCT220
Forecast period: 0800 to 1700 UTC 20 April 2018
Forecast type: FROM: standard forecast or significant change
Winds: from the WSW (240 degrees) at 6 MPH (5 knots; 2.6 m/s)
Visibility: 6 or more miles (10+ km)
Clouds: few clouds at 25000 feet AGL
Weather: no significant weather forecast for this period
Forecast for: KTUS (TUCSON , AZ, US)
Text: KTUS 200520Z 2006/2106 27010KT P6SM SCT220
Forecast period: 1700 to 2000 UTC 20 April 2018
Forecast type: FROM: standard forecast or significant change
Winds: from the WNW (300 degrees) at 12 MPH (10 knots; 5.2 m/s)
Visibility: 6 or more miles (10+ km)
Clouds: clear skies
Weather: no significant weather forecast for this period
Forecast for: KTUS (TUCSON , AZ, US)
Text: KTUS 200520Z 2006/2106 27010KT P6SM SCT220
Forecast period: 1700 to 2000 UTC 20 April 2018
Forecast type: FROM: standard forecast or significant change
Winds: from the WNW (300 degrees) at 12 MPH (10 knots; 5.2 m/s)
Visibility: 6 or more miles (10+ km)
Clouds: clear skies
Weather: no significant weather forecast for this period
Forecast for: KTUS (TUCSON , AZ, US)
Text: KTUS 200520Z 2006/2106 27010KT P6SM SCT220
Forecast period: 2000 UTC 20 April 2018 to 0200 UTC 21 April 2018
Forecast type: FROM: standard forecast or significant change
Winds: from the NW (310 degrees) at 14 MPH (12 knots; 6.2 m/s)
gusting to 23 MPH (20 knots; 10.4 m/s)
Visibility: 6 or more miles (10+ km)
Clouds: clear skies
Weather: no significant weather forecast for this period
Forecast for: KTUS (TUCSON , AZ, US)
Text: KTUS 200520Z 2006/2106 27010KT P6SM SCT220
Forecast period: 2000 UTC 20 April 2018 to 0200 UTC 21 April 2018
Forecast type: FROM: standard forecast or significant change
Winds: from the NW (310 degrees) at 14 MPH (12 knots; 6.2 m/s)
gusting to 23 MPH (20 knots; 10.4 m/s)
Visibility: 6 or more miles (10+ km)
Clouds: clear skies
Weather: no significant weather forecast for this period
Forecast for: KTUS (TUCSON , AZ, US)
Text: KTUS 200520Z 2006/2106 27010KT P6SM SCT220
Forecast period: 0200 to 0600 UTC 21 April 2018
Forecast type: FROM: standard forecast or significant change
Winds: from the WNW (290 degrees) at 8 MPH (7 knots; 3.6 m/s)
Visibility: 6 or more miles (10+ km)
Clouds: clear skies
Weather: no significant weather forecast for this period
Forecast for: KTUS (TUCSON , AZ, US)
Text: KTUS 200520Z 2006/2106 27010KT P6SM SCT220
Forecast period: 0200 to 0600 UTC 21 April 2018
Forecast type: FROM: standard forecast or significant change
Winds: from the WNW (290 degrees) at 8 MPH (7 knots; 3.6 m/s)
Visibility: 6 or more miles (10+ km)
Clouds: clear skies
Weather: no significant weather forecast for this period

 AIRPORT MAP

 RUNWAY INFORMATION
Runway 03 Runway length 7000 ft Runway width 150 ft
Runway elevation 2564 ft Runway displaced threshold 841 ft Runway heading 45
Runway 21 Runway length 7000 ft Runway width 150 ft
Runway elevation 2569 ft Runway displaced threshold 0 ft Runway heading 225
Runway 11L Runway length 10996 ft Runway width 150 ft
Runway elevation 2578 ft Runway displaced threshold 0 ft Runway heading 135
Runway 29R Runway length 10996 ft Runway width 150 ft
Runway elevation 2643 ft Runway displaced threshold 0 ft Runway heading 315
Runway 11R Runway length 8408 ft Runway width 75 ft
Runway elevation 2585 ft Runway displaced threshold 1410 ft Runway heading 135
Runway 29L Runway length 8408 ft Runway width 75 ft
Runway elevation 2629 ft Runway displaced threshold 0 ft Runway heading 315

 AIRPORT FREQUENCIES
Type A/D Name APP/DEP Frequency 119.4 MHZ
Type ATIS Name ATIS Frequency 123.8 MHZ
Type CLD Name CLNC DEL Frequency 126.65 MHZ
Type GND Name GND Frequency 124.4 MHZ
Type POST Name ANG COMD P Frequency 39.22 MHZ
Type RDO Name PRESCOTT R Frequency 122.2 MHZ
Type TWR Name TWR Frequency 118.3 MHZ
Type UNIC Name UNICOM Frequency 122.95 MHZ

 AIRPORT NEAR NAVIGATION AIDS